sensor_id;sensor_type;location;lat;lon;timestamp;P1;durP1;ratioP1;P2;durP2;ratioP2
5279;SDS011;2663;53.588;10.010;2022-10-16T00:01:09;9.87;;;6.00;;
5279;SDS011;2663;53.588;10.010;2022-10-16T00:03:40;8.60;;;5.17;;
5279;SDS011;2663;53.588;10.010;2022-10-16T00:06:08;11.73;;;6.03;;
5279;SDS011;2663;53.588;10.010;2022-10-16T00:08:36;13.73;;;5.93;;
5279;SDS011;2663;53.588;10.010;2022-10-16T00:13:32;6.70;;;4.50;;
5279;SDS011;2663;53.588;10.010;2022-10-16T00:16:00;8.37;;;4.50;;
5279;SDS011;2663;53.588;10.010;2022-10-16T00:18:28;9.90;;;4.47;;
5279;SDS011;2663;53.588;10.010;2022-10-16T00:20:55;6.10;;;3.97;;
5279;SDS011;2663;53.588;10.010;2022-10-16T00:23:28;6.27;;;4.00;;
5279;SDS011;2663;53.588;10.010;2022-10-16T00:25:56;7.83;;;3.90;;
5279;SDS011;2663;53.588;10.010;2022-10-16T00:28:24;5.53;;;4.00;;
5279;SDS011;2663;53.588;10.010;2022-10-16T00:30:50;9.43;;;3.23;;
5279;SDS011;2663;53.588;10.010;2022-10-16T00:33:17;12.10;;;3.80;;
5279;SDS011;2663;53.588;10.010;2022-10-16T00:35:45;4.93;;;3.03;;
5279;SDS011;2663;53.588;10.010;2022-10-16T00:38:12;5.50;;;3.03;;
5279;SDS011;2663;53.588;10.010;2022-10-16T00:40:38;5.27;;;2.80;;
5279;SDS011;2663;53.588;10.010;2022-10-16T00:43:12;4.17;;;3.17;;
5279;SDS011;2663;53.588;10.010;2022-10-16T00:46:03;3.10;;;2.40;;
5279;SDS011;2663;53.588;10.010;2022-10-16T00:48:35;5.00;;;2.20;;
5279;SDS011;2663;53.588;10.010;2022-10-16T00:51:02;3.00;;;2.33;;
5279;SDS011;2663;53.588;10.010;2022-10-16T00:53:30;3.80;;;2.23;;
5279;SDS011;2663;53.588;10.010;2022-10-16T00:55:57;4.03;;;2.10;;
5279;SDS011;2663;53.588;10.010;2022-10-16T00:58:23;7.00;;;2.20;;
5279;SDS011;2663;53.588;10.010;2022-10-16T01:00:50;5.80;;;2.20;;
5279;SDS011;2663;53.588;10.010;2022-10-16T01:03:33;6.03;;;1.90;;
5279;SDS011;2663;53.588;10.010;2022-10-16T01:11:19;4.30;;;1.90;;
5279;SDS011;2663;53.588;10.010;2022-10-16T01:13:49;2.00;;;1.70;;
5279;SDS011;2663;53.588;10.010;2022-10-16T01:16:32;4.27;;;1.53;;
5279;SDS011;2663;53.588;10.010;2022-10-16T01:19:08;6.43;;;2.10;;
5279;SDS011;2663;53.588;10.010;2022-10-16T01:21:40;4.80;;;1.70;;
5279;SDS011;2663;53.588;10.010;2022-10-16T01:26:58;4.90;;;2.00;;
5279;SDS011;2663;53.588;10.010;2022-10-16T01:34:47;7.83;;;2.20;;
5279;SDS011;2663;53.588;10.010;2022-10-16T01:37:20;2.30;;;1.30;;
5279;SDS011;2663;53.588;10.010;2022-10-16T01:39:55;5.60;;;2.10;;
5279;SDS011;2663;53.588;10.010;2022-10-16T01:42:28;2.80;;;1.67;;
5279;SDS011;2663;53.588;10.010;2022-10-16T01:45:00;6.00;;;1.60;;
5279;SDS011;2663;53.588;10.010;2022-10-16T01:47:28;3.47;;;1.40;;
5279;SDS011;2663;53.588;10.010;2022-10-16T01:49:57;2.90;;;1.63;;
5279;SDS011;2663;53.588;10.010;2022-10-16T01:52:26;9.80;;;1.97;;
5279;SDS011;2663;53.588;10.010;2022-10-16T01:54:55;6.47;;;1.60;;
5279;SDS011;2663;53.588;10.010;2022-10-16T01:57:24;2.80;;;1.30;;
5279;SDS011;2663;53.588;10.010;2022-10-16T01:59:52;4.53;;;2.00;;
5279;SDS011;2663;53.588;10.010;2022-10-16T02:02:22;4.10;;;1.90;;
5279;SDS011;2663;53.588;10.010;2022-10-16T02:04:53;5.50;;;1.77;;
5279;SDS011;2663;53.588;10.010;2022-10-16T02:07:24;3.40;;;1.57;;
5279;SDS011;2663;53.588;10.010;2022-10-16T02:09:51;3.90;;;1.87;;
5279;SDS011;2663;53.588;10.010;2022-10-16T02:12:25;2.20;;;1.43;;
5279;SDS011;2663;53.588;10.010;2022-10-16T02:14:54;10.33;;;2.53;;
5279;SDS011;2663;53.588;10.010;2022-10-16T02:17:21;3.00;;;1.30;;
5279;SDS011;2663;53.588;10.010;2022-10-16T02:19:49;4.33;;;1.70;;
5279;SDS011;2663;53.588;10.010;2022-10-16T02:22:21;4.10;;;1.70;;
5279;SDS011;2663;53.588;10.010;2022-10-16T02:24:59;2.10;;;1.60;;
5279;SDS011;2663;53.588;10.010;2022-10-16T02:30:07;2.30;;;1.43;;
5279;SDS011;2663;53.588;10.010;2022-10-16T02:32:47;3.03;;;1.43;;
5279;SDS011;2663;53.588;10.010;2022-10-16T02:35:16;4.53;;;1.50;;
5279;SDS011;2663;53.588;10.010;2022-10-16T02:37:44;2.70;;;1.23;;
5279;SDS011;2663;53.588;10.010;2022-10-16T02:40:12;3.33;;;1.60;;
5279;SDS011;2663;53.588;10.010;2022-10-16T02:42:40;8.77;;;1.83;;
5279;SDS011;2663;53.588;10.010;2022-10-16T02:45:08;1.67;;;1.47;;
5279;SDS011;2663;53.588;10.010;2022-10-16T02:47:36;9.50;;;2.50;;
5279;SDS011;2663;53.588;10.010;2022-10-16T02:50:03;3.43;;;1.37;;
5279;SDS011;2663;53.588;10.010;2022-10-16T02:52:30;5.43;;;2.23;;
5279;SDS011;2663;53.588;10.010;2022-10-16T02:54:57;7.97;;;1.60;;
5279;SDS011;2663;53.588;10.010;2022-10-16T02:57:24;4.17;;;1.60;;
5279;SDS011;2663;53.588;10.010;2022-10-16T02:59:51;10.00;;;2.00;;
5279;SDS011;2663;53.588;10.010;2022-10-16T03:02:18;3.03;;;1.30;;
5279;SDS011;2663;53.588;10.010;2022-10-16T03:04:44;2.07;;;1.70;;
5279;SDS011;2663;53.588;10.010;2022-10-16T03:07:11;2.80;;;1.23;;
5279;SDS011;2663;53.588;10.010;2022-10-16T03:09:38;4.40;;;1.43;;
5279;SDS011;2663;53.588;10.010;2022-10-16T03:12:04;3.37;;;1.80;;
5279;SDS011;2663;53.588;10.010;2022-10-16T03:14:31;2.83;;;1.80;;
5279;SDS011;2663;53.588;10.010;2022-10-16T03:16:58;4.13;;;2.50;;
5279;SDS011;2663;53.588;10.010;2022-10-16T03:19:24;7.70;;;1.60;;
5279;SDS011;2663;53.588;10.010;2022-10-16T03:21:51;1.90;;;1.80;;
5279;SDS011;2663;53.588;10.010;2022-10-16T03:24:18;7.93;;;1.50;;
5279;SDS011;2663;53.588;10.010;2022-10-16T03:26:44;10.03;;;1.87;;
5279;SDS011;2663;53.588;10.010;2022-10-16T03:29:11;1.77;;;1.57;;
5279;SDS011;2663;53.588;10.010;2022-10-16T03:31:37;4.20;;;1.47;;
5279;SDS011;2663;53.588;10.010;2022-10-16T03:34:04;4.40;;;2.93;;
5279;SDS011;2663;53.588;10.010;2022-10-16T03:36:31;5.33;;;1.50;;
5279;SDS011;2663;53.588;10.010;2022-10-16T03:38:57;2.70;;;1.57;;
5279;SDS011;2663;53.588;10.010;2022-10-16T03:41:24;5.90;;;1.63;;
5279;SDS011;2663;53.588;10.010;2022-10-16T03:43:51;3.47;;;1.20;;
5279;SDS011;2663;53.588;10.010;2022-10-16T03:46:17;5.73;;;2.00;;
5279;SDS011;2663;53.588;10.010;2022-10-16T03:48:44;4.20;;;1.47;;
5279;SDS011;2663;53.588;10.010;2022-10-16T03:51:10;1.30;;;1.20;;
5279;SDS011;2663;53.588;10.010;2022-10-16T03:53:37;2.40;;;1.20;;
5279;SDS011;2663;53.588;10.010;2022-10-16T03:56:04;3.20;;;1.77;;
5279;SDS011;2663;53.588;10.010;2022-10-16T03:58:30;2.90;;;1.40;;
5279;SDS011;2663;53.588;10.010;2022-10-16T04:00:57;3.43;;;1.17;;
5279;SDS011;2663;53.588;10.010;2022-10-16T04:03:24;2.00;;;1.50;;
5279;SDS011;2663;53.588;10.010;2022-10-16T04:05:50;7.17;;;1.67;;
5279;SDS011;2663;53.588;10.010;2022-10-16T04:08:17;1.73;;;1.63;;
5279;SDS011;2663;53.588;10.010;2022-10-16T04:10:44;6.50;;;1.83;;
5279;SDS011;2663;53.588;10.010;2022-10-16T04:13:11;5.07;;;1.63;;
5279;SDS011;2663;53.588;10.010;2022-10-16T04:15:38;5.10;;;1.47;;
5279;SDS011;2663;53.588;10.010;2022-10-16T04:18:05;5.80;;;1.77;;
5279;SDS011;2663;53.588;10.010;2022-10-16T04:20:32;4.37;;;1.43;;
5279;SDS011;2663;53.588;10.010;2022-10-16T04:22:59;4.50;;;1.83;;
5279;SDS011;2663;53.588;10.010;2022-10-16T04:25:26;1.63;;;1.50;;
5279;SDS011;2663;53.588;10.010;2022-10-16T04:27:53;4.23;;;1.60;;
5279;SDS011;2663;53.588;10.010;2022-10-16T04:30:20;3.00;;;1.97;;
5279;SDS011;2663;53.588;10.010;2022-10-16T04:32:48;3.83;;;1.77;;
5279;SDS011;2663;53.588;10.010;2022-10-16T04:35:16;8.27;;;1.93;;
5279;SDS011;2663;53.588;10.010;2022-10-16T04:37:44;8.60;;;1.63;;
5279;SDS011;2663;53.588;10.010;2022-10-16T04:40:10;5.63;;;2.10;;
5279;SDS011;2663;53.588;10.010;2022-10-16T04:42:37;1.77;;;1.33;;
5279;SDS011;2663;53.588;10.010;2022-10-16T04:45:05;3.30;;;1.50;;
5279;SDS011;2663;53.588;10.010;2022-10-16T04:47:32;2.43;;;1.47;;
5279;SDS011;2663;53.588;10.010;2022-10-16T04:49:58;7.63;;;1.57;;
5279;SDS011;2663;53.588;10.010;2022-10-16T04:52:28;2.43;;;1.70;;
5279;SDS011;2663;53.588;10.010;2022-10-16T04:54:55;2.77;;;1.57;;
5279;SDS011;2663;53.588;10.010;2022-10-16T04:57:26;3.60;;;2.03;;
5279;SDS011;2663;53.588;10.010;2022-10-16T04:59:53;5.40;;;1.43;;
5279;SDS011;2663;53.588;10.010;2022-10-16T05:02:20;2.50;;;1.60;;
5279;SDS011;2663;53.588;10.010;2022-10-16T05:04:47;2.60;;;1.93;;
5279;SDS011;2663;53.588;10.010;2022-10-16T05:07:13;8.60;;;2.20;;
5279;SDS011;2663;53.588;10.010;2022-10-16T05:09:40;10.40;;;2.60;;
5279;SDS011;2663;53.588;10.010;2022-10-16T05:12:07;1.70;;;1.60;;
5279;SDS011;2663;53.588;10.010;2022-10-16T05:14:33;4.13;;;1.77;;
5279;SDS011;2663;53.588;10.010;2022-10-16T05:17:00;12.40;;;2.07;;
5279;SDS011;2663;53.588;10.010;2022-10-16T05:19:27;4.73;;;2.27;;
5279;SDS011;2663;53.588;10.010;2022-10-16T05:21:54;5.13;;;2.37;;
5279;SDS011;2663;53.588;10.010;2022-10-16T05:24:21;7.10;;;2.13;;
5279;SDS011;2663;53.588;10.010;2022-10-16T05:26:48;4.07;;;2.47;;
5279;SDS011;2663;53.588;10.010;2022-10-16T05:29:15;11.10;;;2.10;;
5279;SDS011;2663;53.588;10.010;2022-10-16T05:31:42;4.57;;;2.07;;
5279;SDS011;2663;53.588;10.010;2022-10-16T05:34:09;5.23;;;2.40;;
5279;SDS011;2663;53.588;10.010;2022-10-16T05:36:35;9.40;;;2.70;;
5279;SDS011;2663;53.588;10.010;2022-10-16T05:39:02;6.63;;;2.63;;
5279;SDS011;2663;53.588;10.010;2022-10-16T05:41:29;8.30;;;2.33;;
5279;SDS011;2663;53.588;10.010;2022-10-16T05:43:56;8.23;;;2.40;;
5279;SDS011;2663;53.588;10.010;2022-10-16T05:46:22;4.03;;;2.23;;
5279;SDS011;2663;53.588;10.010;2022-10-16T05:48:51;6.90;;;2.53;;
5279;SDS011;2663;53.588;10.010;2022-10-16T05:51:19;3.30;;;1.77;;
5279;SDS011;2663;53.588;10.010;2022-10-16T05:53:45;5.23;;;2.00;;
5279;SDS011;2663;53.588;10.010;2022-10-16T05:56:12;3.73;;;2.00;;
5279;SDS011;2663;53.588;10.010;2022-10-16T05:58:39;4.27;;;1.80;;
5279;SDS011;2663;53.588;10.010;2022-10-16T06:01:12;12.37;;;2.17;;
5279;SDS011;2663;53.588;10.010;2022-10-16T06:03:43;2.90;;;1.70;;
5279;SDS011;2663;53.588;10.010;2022-10-16T06:06:11;3.87;;;1.63;;
5279;SDS011;2663;53.588;10.010;2022-10-16T06:08:39;7.47;;;1.70;;
5279;SDS011;2663;53.588;10.010;2022-10-16T06:11:08;3.37;;;1.90;;
5279;SDS011;2663;53.588;10.010;2022-10-16T06:13:36;9.23;;;2.73;;
5279;SDS011;2663;53.588;10.010;2022-10-16T06:16:05;2.20;;;2.00;;
5279;SDS011;2663;53.588;10.010;2022-10-16T06:18:32;5.90;;;1.90;;
5279;SDS011;2663;53.588;10.010;2022-10-16T06:20:58;6.33;;;2.00;;
5279;SDS011;2663;53.588;10.010;2022-10-16T06:23:25;2.80;;;1.73;;
5279;SDS011;2663;53.588;10.010;2022-10-16T06:25:54;5.93;;;1.90;;
5279;SDS011;2663;53.588;10.010;2022-10-16T06:28:37;4.97;;;1.60;;
5279;SDS011;2663;53.588;10.010;2022-10-16T06:31:05;6.13;;;1.80;;
5279;SDS011;2663;53.588;10.010;2022-10-16T06:33:34;2.50;;;2.07;;
5279;SDS011;2663;53.588;10.010;2022-10-16T06:36:02;5.07;;;2.17;;
5279;SDS011;2663;53.588;10.010;2022-10-16T06:38:31;3.50;;;1.87;;
5279;SDS011;2663;53.588;10.010;2022-10-16T06:40:58;2.53;;;1.80;;
5279;SDS011;2663;53.588;10.010;2022-10-16T06:43:25;4.47;;;2.43;;
5279;SDS011;2663;53.588;10.010;2022-10-16T06:45:56;3.47;;;1.97;;
5279;SDS011;2663;53.588;10.010;2022-10-16T06:48:23;8.80;;;2.70;;
5279;SDS011;2663;53.588;10.010;2022-10-16T06:53:35;3.03;;;2.40;;
5279;SDS011;2663;53.588;10.010;2022-10-16T06:56:13;3.17;;;1.70;;
5279;SDS011;2663;53.588;10.010;2022-10-16T06:58:44;2.70;;;2.27;;
5279;SDS011;2663;53.588;10.010;2022-10-16T07:01:12;5.53;;;2.10;;
5279;SDS011;2663;53.588;10.010;2022-10-16T07:03:40;3.73;;;2.10;;
5279;SDS011;2663;53.588;10.010;2022-10-16T07:06:08;3.77;;;1.60;;
5279;SDS011;2663;53.588;10.010;2022-10-16T07:08:37;5.80;;;1.80;;
5279;SDS011;2663;53.588;10.010;2022-10-16T07:11:06;2.17;;;2.03;;
5279;SDS011;2663;53.588;10.010;2022-10-16T07:13:35;8.70;;;2.23;;
5279;SDS011;2663;53.588;10.010;2022-10-16T07:16:12;4.50;;;2.20;;
5279;SDS011;2663;53.588;10.010;2022-10-16T07:18:42;2.53;;;2.30;;
5279;SDS011;2663;53.588;10.010;2022-10-16T07:21:18;4.90;;;2.40;;
5279;SDS011;2663;53.588;10.010;2022-10-16T07:23:53;3.87;;;2.80;;
5279;SDS011;2663;53.588;10.010;2022-10-16T07:26:21;2.90;;;2.40;;
5279;SDS011;2663;53.588;10.010;2022-10-16T07:28:48;6.73;;;3.20;;
5279;SDS011;2663;53.588;10.010;2022-10-16T07:31:16;10.63;;;2.57;;
5279;SDS011;2663;53.588;10.010;2022-10-16T07:33:45;12.20;;;2.30;;
5279;SDS011;2663;53.588;10.010;2022-10-16T07:36:14;5.90;;;2.20;;
5279;SDS011;2663;53.588;10.010;2022-10-16T07:38:43;6.10;;;2.50;;
5279;SDS011;2663;53.588;10.010;2022-10-16T07:41:11;2.33;;;2.13;;
5279;SDS011;2663;53.588;10.010;2022-10-16T07:43:39;4.73;;;2.67;;
5279;SDS011;2663;53.588;10.010;2022-10-16T07:46:06;5.97;;;2.00;;
5279;SDS011;2663;53.588;10.010;2022-10-16T07:48:33;7.30;;;2.60;;
5279;SDS011;2663;53.588;10.010;2022-10-16T07:51:04;2.47;;;2.23;;
5279;SDS011;2663;53.588;10.010;2022-10-16T07:53:32;4.73;;;2.20;;
5279;SDS011;2663;53.588;10.010;2022-10-16T07:56:03;7.40;;;1.97;;
5279;SDS011;2663;53.588;10.010;2022-10-16T07:58:32;6.00;;;2.53;;
5279;SDS011;2663;53.588;10.010;2022-10-16T08:01:02;2.40;;;2.13;;
5279;SDS011;2663;53.588;10.010;2022-10-16T08:03:31;2.70;;;2.10;;
5279;SDS011;2663;53.588;10.010;2022-10-16T08:05:58;3.70;;;2.20;;
5279;SDS011;2663;53.588;10.010;2022-10-16T08:08:25;3.50;;;2.03;;
5279;SDS011;2663;53.588;10.010;2022-10-16T08:10:53;8.07;;;2.53;;
5279;SDS011;2663;53.588;10.010;2022-10-16T08:13:20;5.00;;;2.77;;
5279;SDS011;2663;53.588;10.010;2022-10-16T08:15:47;2.53;;;1.87;;
5279;SDS011;2663;53.588;10.010;2022-10-16T08:18:14;6.63;;;2.70;;
5279;SDS011;2663;53.588;10.010;2022-10-16T08:20:41;7.73;;;2.87;;
5279;SDS011;2663;53.588;10.010;2022-10-16T08:23:09;2.73;;;2.47;;
5279;SDS011;2663;53.588;10.010;2022-10-16T08:25:37;9.23;;;3.03;;
5279;SDS011;2663;53.588;10.010;2022-10-16T08:28:04;7.37;;;2.60;;
5279;SDS011;2663;53.588;10.010;2022-10-16T08:30:33;2.30;;;2.10;;
5279;SDS011;2663;53.588;10.010;2022-10-16T08:33:00;8.20;;;3.10;;
5279;SDS011;2663;53.588;10.010;2022-10-16T08:35:27;3.27;;;2.37;;
5279;SDS011;2663;53.588;10.010;2022-10-16T08:37:54;3.07;;;2.80;;
5279;SDS011;2663;53.588;10.010;2022-10-16T08:40:25;7.27;;;2.30;;
5279;SDS011;2663;53.588;10.010;2022-10-16T08:48:17;5.00;;;2.17;;
5279;SDS011;2663;53.588;10.010;2022-10-16T08:50:46;2.30;;;2.07;;
5279;SDS011;2663;53.588;10.010;2022-10-16T08:53:18;5.83;;;2.67;;
5279;SDS011;2663;53.588;10.010;2022-10-16T08:55:54;4.27;;;2.60;;
5279;SDS011;2663;53.588;10.010;2022-10-16T08:58:22;6.30;;;1.97;;
5279;SDS011;2663;53.588;10.010;2022-10-16T09:00:56;4.30;;;2.33;;
5279;SDS011;2663;53.588;10.010;2022-10-16T09:19:51;6.60;;;2.40;;
5279;SDS011;2663;53.588;10.010;2022-10-16T09:22:25;3.40;;;1.90;;
5279;SDS011;2663;53.588;10.010;2022-10-16T09:24:55;2.10;;;1.40;;
5279;SDS011;2663;53.588;10.010;2022-10-16T09:27:26;2.50;;;1.73;;
5279;SDS011;2663;53.588;10.010;2022-10-16T09:29:53;8.20;;;2.20;;
5279;SDS011;2663;53.588;10.010;2022-10-16T09:32:25;3.00;;;1.77;;
5279;SDS011;2663;53.588;10.010;2022-10-16T09:34:52;3.27;;;2.63;;
5279;SDS011;2663;53.588;10.010;2022-10-16T09:37:22;1.20;;;1.13;;
5279;SDS011;2663;53.588;10.010;2022-10-16T09:39:52;9.40;;;1.43;;
5279;SDS011;2663;53.588;10.010;2022-10-16T09:42:24;7.77;;;2.20;;
5279;SDS011;2663;53.588;10.010;2022-10-16T09:44:57;2.60;;;1.37;;
5279;SDS011;2663;53.588;10.010;2022-10-16T09:47:25;1.93;;;1.40;;
5279;SDS011;2663;53.588;10.010;2022-10-16T09:52:28;6.23;;;3.20;;
5279;SDS011;2663;53.588;10.010;2022-10-16T09:54:59;4.07;;;1.27;;
5279;SDS011;2663;53.588;10.010;2022-10-16T09:57:27;5.73;;;1.40;;
5279;SDS011;2663;53.588;10.010;2022-10-16T09:59:56;14.60;;;1.80;;
5279;SDS011;2663;53.588;10.010;2022-10-16T10:02:34;2.00;;;1.50;;
5279;SDS011;2663;53.588;10.010;2022-10-16T10:05:02;7.00;;;1.73;;
5279;SDS011;2663;53.588;10.010;2022-10-16T10:07:36;2.40;;;1.40;;
5279;SDS011;2663;53.588;10.010;2022-10-16T10:10:22;2.00;;;1.57;;
5279;SDS011;2663;53.588;10.010;2022-10-16T10:12:56;2.10;;;1.23;;
5279;SDS011;2663;53.588;10.010;2022-10-16T10:15:23;3.67;;;1.50;;
5279;SDS011;2663;53.588;10.010;2022-10-16T10:17:53;2.13;;;1.37;;
5279;SDS011;2663;53.588;10.010;2022-10-16T10:23:01;2.87;;;1.50;;
5279;SDS011;2663;53.588;10.010;2022-10-16T10:25:52;2.80;;;1.20;;
5279;SDS011;2663;53.588;10.010;2022-10-16T10:34:22;6.10;;;1.50;;
5279;SDS011;2663;53.588;10.010;2022-10-16T10:37:12;2.30;;;1.53;;
5279;SDS011;2663;53.588;10.010;2022-10-16T10:46:01;5.53;;;1.33;;
5279;SDS011;2663;53.588;10.010;2022-10-16T10:57:02;3.37;;;1.17;;
5279;SDS011;2663;53.588;10.010;2022-10-16T10:59:48;4.90;;;1.47;;
5279;SDS011;2663;53.588;10.010;2022-10-16T11:03:08;2.23;;;0.90;;
5279;SDS011;2663;53.588;10.010;2022-10-16T11:11:02;1.60;;;1.17;;
5279;SDS011;2663;53.588;10.010;2022-10-16T11:13:55;3.77;;;1.33;;
5279;SDS011;2663;53.588;10.010;2022-10-16T11:16:30;7.80;;;1.43;;
5279;SDS011;2663;53.588;10.010;2022-10-16T11:19:04;3.10;;;1.27;;
5279;SDS011;2663;53.588;10.010;2022-10-16T11:22:02;2.23;;;1.10;;
5279;SDS011;2663;53.588;10.010;2022-10-16T11:24:51;5.07;;;1.20;;
5279;SDS011;2663;53.588;10.010;2022-10-16T11:30:20;21.80;;;6.17;;
5279;SDS011;2663;53.588;10.010;2022-10-16T11:32:54;4.77;;;2.23;;
5279;SDS011;2663;53.588;10.010;2022-10-16T11:35:36;2.63;;;1.00;;
5279;SDS011;2663;53.588;10.010;2022-10-16T11:38:07;1.53;;;1.00;;
5279;SDS011;2663;53.588;10.010;2022-10-16T11:40:42;4.83;;;1.00;;
5279;SDS011;2663;53.588;10.010;2022-10-16T11:43:14;4.80;;;1.10;;
5279;SDS011;2663;53.588;10.010;2022-10-16T11:45:52;7.00;;;0.70;;
5279;SDS011;2663;53.588;10.010;2022-10-16T11:50:54;1.93;;;0.90;;
5279;SDS011;2663;53.588;10.010;2022-10-16T11:56:05;3.83;;;1.00;;
5279;SDS011;2663;53.588;10.010;2022-10-16T12:09:34;4.63;;;1.30;;
5279;SDS011;2663;53.588;10.010;2022-10-16T12:12:04;1.90;;;0.83;;
5279;SDS011;2663;53.588;10.010;2022-10-16T12:14:59;8.80;;;1.10;;
5279;SDS011;2663;53.588;10.010;2022-10-16T12:17:55;3.93;;;0.90;;
5279;SDS011;2663;53.588;10.010;2022-10-16T12:20:24;3.80;;;1.03;;
5279;SDS011;2663;53.588;10.010;2022-10-16T12:22:54;2.93;;;0.90;;
5279;SDS011;2663;53.588;10.010;2022-10-16T12:25:36;4.13;;;1.27;;
5279;SDS011;2663;53.588;10.010;2022-10-16T12:30:42;5.07;;;1.30;;
5279;SDS011;2663;53.588;10.010;2022-10-16T12:33:19;2.20;;;0.60;;
5279;SDS011;2663;53.588;10.010;2022-10-16T12:35:52;5.37;;;1.30;;
5279;SDS011;2663;53.588;10.010;2022-10-16T12:38:27;5.80;;;1.43;;
5279;SDS011;2663;53.588;10.010;2022-10-16T12:41:01;6.43;;;1.70;;
5279;SDS011;2663;53.588;10.010;2022-10-16T12:43:40;2.43;;;0.97;;
5279;SDS011;2663;53.588;10.010;2022-10-16T12:48:36;5.37;;;1.17;;
5279;SDS011;2663;53.588;10.010;2022-10-16T12:57:03;3.83;;;1.27;;
5279;SDS011;2663;53.588;10.010;2022-10-16T12:59:50;14.83;;;1.27;;
5279;SDS011;2663;53.588;10.010;2022-10-16T13:05:13;2.93;;;0.80;;
5279;SDS011;2663;53.588;10.010;2022-10-16T13:08:05;3.27;;;1.10;;
5279;SDS011;2663;53.588;10.010;2022-10-16T13:13:59;4.60;;;1.40;;
5279;SDS011;2663;53.588;10.010;2022-10-16T13:22:33;2.27;;;1.07;;
5279;SDS011;2663;53.588;10.010;2022-10-16T13:27:55;2.70;;;1.00;;
5279;SDS011;2663;53.588;10.010;2022-10-16T13:30:29;3.40;;;1.30;;
5279;SDS011;2663;53.588;10.010;2022-10-16T13:33:01;1.50;;;0.90;;
5279;SDS011;2663;53.588;10.010;2022-10-16T13:35:54;10.80;;;2.77;;
5279;SDS011;2663;53.588;10.010;2022-10-16T13:38:26;6.43;;;1.20;;
5279;SDS011;2663;53.588;10.010;2022-10-16T13:40:59;10.33;;;1.27;;
5279;SDS011;2663;53.588;10.010;2022-10-16T13:43:40;2.67;;;0.93;;
5279;SDS011;2663;53.588;10.010;2022-10-16T13:46:13;3.33;;;1.17;;
5279;SDS011;2663;53.588;10.010;2022-10-16T13:48:44;5.80;;;1.00;;
5279;SDS011;2663;53.588;10.010;2022-10-16T13:51:22;8.80;;;2.00;;
5279;SDS011;2663;53.588;10.010;2022-10-16T13:53:54;5.60;;;1.73;;
5279;SDS011;2663;53.588;10.010;2022-10-16T13:56:25;8.77;;;1.30;;
5279;SDS011;2663;53.588;10.010;2022-10-16T13:59:04;8.33;;;1.17;;
5279;SDS011;2663;53.588;10.010;2022-10-16T14:01:40;3.73;;;1.20;;
5279;SDS011;2663;53.588;10.010;2022-10-16T14:04:09;6.60;;;1.10;;
5279;SDS011;2663;53.588;10.010;2022-10-16T14:06:42;1.03;;;0.77;;
5279;SDS011;2663;53.588;10.010;2022-10-16T14:09:21;6.43;;;1.10;;
5279;SDS011;2663;53.588;10.010;2022-10-16T14:11:53;3.80;;;1.13;;
5279;SDS011;2663;53.588;10.010;2022-10-16T14:14:22;4.27;;;1.30;;
5279;SDS011;2663;53.588;10.010;2022-10-16T14:16:50;5.63;;;1.17;;
5279;SDS011;2663;53.588;10.010;2022-10-16T14:19:21;7.50;;;1.07;;
5279;SDS011;2663;53.588;10.010;2022-10-16T14:21:51;7.47;;;1.80;;
5279;SDS011;2663;53.588;10.010;2022-10-16T14:26:52;3.07;;;0.97;;
5279;SDS011;2663;53.588;10.010;2022-10-16T14:29:22;5.00;;;1.60;;
5279;SDS011;2663;53.588;10.010;2022-10-16T14:34:28;3.57;;;1.40;;
5279;SDS011;2663;53.588;10.010;2022-10-16T14:36:56;5.40;;;1.37;;
5279;SDS011;2663;53.588;10.010;2022-10-16T14:39:38;2.10;;;1.00;;
5279;SDS011;2663;53.588;10.010;2022-10-16T14:42:11;4.67;;;1.23;;
5279;SDS011;2663;53.588;10.010;2022-10-16T14:44:42;2.00;;;0.90;;
5279;SDS011;2663;53.588;10.010;2022-10-16T14:47:09;2.83;;;1.10;;
5279;SDS011;2663;53.588;10.010;2022-10-16T14:49:41;2.97;;;0.97;;
5279;SDS011;2663;53.588;10.010;2022-10-16T14:52:09;7.03;;;1.40;;
5279;SDS011;2663;53.588;10.010;2022-10-16T14:54:37;11.83;;;1.80;;
5279;SDS011;2663;53.588;10.010;2022-10-16T14:57:04;2.20;;;1.30;;
5279;SDS011;2663;53.588;10.010;2022-10-16T14:59:35;6.90;;;1.20;;
5279;SDS011;2663;53.588;10.010;2022-10-16T15:05:31;3.13;;;1.13;;
5279;SDS011;2663;53.588;10.010;2022-10-16T15:07:58;8.73;;;1.27;;
5279;SDS011;2663;53.588;10.010;2022-10-16T15:10:25;6.20;;;1.63;;
5279;SDS011;2663;53.588;10.010;2022-10-16T15:12:54;9.80;;;1.53;;
5279;SDS011;2663;53.588;10.010;2022-10-16T15:15:24;4.53;;;1.53;;
5279;SDS011;2663;53.588;10.010;2022-10-16T15:17:59;10.37;;;1.50;;
5279;SDS011;2663;53.588;10.010;2022-10-16T15:20:27;5.20;;;1.30;;
5279;SDS011;2663;53.588;10.010;2022-10-16T15:22:56;9.73;;;1.30;;
5279;SDS011;2663;53.588;10.010;2022-10-16T15:25:35;16.27;;;1.83;;
5279;SDS011;2663;53.588;10.010;2022-10-16T15:28:05;4.27;;;1.43;;
5279;SDS011;2663;53.588;10.010;2022-10-16T15:30:33;9.40;;;1.67;;
5279;SDS011;2663;53.588;10.010;2022-10-16T15:33:00;7.50;;;1.53;;
5279;SDS011;2663;53.588;10.010;2022-10-16T15:35:27;7.13;;;1.80;;
5279;SDS011;2663;53.588;10.010;2022-10-16T15:37:54;19.10;;;1.70;;
5279;SDS011;2663;53.588;10.010;2022-10-16T15:40:20;4.63;;;1.13;;
5279;SDS011;2663;53.588;10.010;2022-10-16T15:42:48;3.93;;;1.27;;
5279;SDS011;2663;53.588;10.010;2022-10-16T15:45:15;6.47;;;1.47;;
5279;SDS011;2663;53.588;10.010;2022-10-16T15:47:42;3.87;;;1.40;;
5279;SDS011;2663;53.588;10.010;2022-10-16T15:50:11;7.40;;;1.40;;
5279;SDS011;2663;53.588;10.010;2022-10-16T15:52:39;9.57;;;1.37;;
5279;SDS011;2663;53.588;10.010;2022-10-16T15:55:10;6.37;;;1.47;;
5279;SDS011;2663;53.588;10.010;2022-10-16T15:57:38;12.63;;;2.23;;
5279;SDS011;2663;53.588;10.010;2022-10-16T16:00:07;1.33;;;1.07;;
5279;SDS011;2663;53.588;10.010;2022-10-16T16:02:36;4.77;;;1.53;;
5279;SDS011;2663;53.588;10.010;2022-10-16T16:05:03;4.20;;;1.43;;
5279;SDS011;2663;53.588;10.010;2022-10-16T16:07:33;7.57;;;1.40;;
5279;SDS011;2663;53.588;10.010;2022-10-16T16:10:01;6.97;;;1.80;;
5279;SDS011;2663;53.588;10.010;2022-10-16T16:12:29;3.10;;;1.10;;
5279;SDS011;2663;53.588;10.010;2022-10-16T16:14:56;4.40;;;1.67;;
5279;SDS011;2663;53.588;10.010;2022-10-16T16:17:29;5.43;;;1.60;;
5279;SDS011;2663;53.588;10.010;2022-10-16T16:19:57;8.60;;;1.37;;
5279;SDS011;2663;53.588;10.010;2022-10-16T16:22:23;6.20;;;2.03;;
5279;SDS011;2663;53.588;10.010;2022-10-16T16:24:51;5.97;;;1.77;;
5279;SDS011;2663;53.588;10.010;2022-10-16T16:27:18;8.70;;;2.17;;
5279;SDS011;2663;53.588;10.010;2022-10-16T16:29:46;9.27;;;2.07;;
5279;SDS011;2663;53.588;10.010;2022-10-16T16:32:13;7.77;;;1.23;;
5279;SDS011;2663;53.588;10.010;2022-10-16T16:34:40;8.90;;;2.10;;
5279;SDS011;2663;53.588;10.010;2022-10-16T16:37:07;7.33;;;1.60;;
5279;SDS011;2663;53.588;10.010;2022-10-16T16:39:33;14.90;;;1.87;;
5279;SDS011;2663;53.588;10.010;2022-10-16T16:42:00;6.13;;;1.73;;
5279;SDS011;2663;53.588;10.010;2022-10-16T16:44:29;8.53;;;2.73;;
5279;SDS011;2663;53.588;10.010;2022-10-16T16:46:55;10.87;;;2.20;;
5279;SDS011;2663;53.588;10.010;2022-10-16T16:49:22;7.50;;;2.50;;
5279;SDS011;2663;53.588;10.010;2022-10-16T16:51:49;6.43;;;2.07;;
5279;SDS011;2663;53.588;10.010;2022-10-16T16:54:16;6.83;;;2.80;;
5279;SDS011;2663;53.588;10.010;2022-10-16T16:56:42;4.27;;;1.60;;
5279;SDS011;2663;53.588;10.010;2022-10-16T16:59:14;8.00;;;2.67;;
5279;SDS011;2663;53.588;10.010;2022-10-16T17:01:43;7.50;;;2.10;;
5279;SDS011;2663;53.588;10.010;2022-10-16T17:04:10;12.33;;;3.23;;
5279;SDS011;2663;53.588;10.010;2022-10-16T17:06:37;9.97;;;2.50;;
5279;SDS011;2663;53.588;10.010;2022-10-16T17:09:05;9.67;;;1.70;;
5279;SDS011;2663;53.588;10.010;2022-10-16T17:11:33;8.93;;;2.10;;
5279;SDS011;2663;53.588;10.010;2022-10-16T17:14:00;15.30;;;2.30;;
5279;SDS011;2663;53.588;10.010;2022-10-16T17:16:29;7.90;;;2.53;;
5279;SDS011;2663;53.588;10.010;2022-10-16T17:19:01;5.73;;;2.37;;
5279;SDS011;2663;53.588;10.010;2022-10-16T17:21:31;8.00;;;1.73;;
5279;SDS011;2663;53.588;10.010;2022-10-16T17:23:58;8.10;;;2.00;;
5279;SDS011;2663;53.588;10.010;2022-10-16T17:26:26;4.83;;;1.60;;